Terminal Aerodrome Forecast
Issued by NWS Green Bay, WI

Home | Current Version | Previous Version | Text Only | Print | Product List | Glossary On
Versions: 1 2 3 4 5 6 7 8 9 10 11 12 13 14 15 16 17
000
FTUS43 KGRB 291135
TAFGRB
TAF
KGRB 291135Z 2912/3012 02007KT P6SM SCT030 OVC045
     FM291900 05009KT P6SM SCT040 BKN060
     FM292300 07005KT P6SM SCT060
     FM300800 03007KT P6SM SCT070=

USA.gov is the U.S. government's official web portal to all federal, state and local government web resources and services.